sensor_id;sensor_type;location;lat;lon;timestamp;P1;durP1;ratioP1;P2;durP2;ratioP2
19509;SDS011;9896;42.486;26.506;2023-09-12T00:01:25;5.97;;;3.93;;
19509;SDS011;9896;42.486;26.506;2023-09-12T00:03:50;4.17;;;3.60;;
19509;SDS011;9896;42.486;26.506;2023-09-12T00:06:15;5.37;;;3.97;;
19509;SDS011;9896;42.486;26.506;2023-09-12T00:08:41;4.33;;;3.70;;
19509;SDS011;9896;42.486;26.506;2023-09-12T00:11:07;5.67;;;3.80;;
19509;SDS011;9896;42.486;26.506;2023-09-12T00:13:35;3.73;;;3.30;;
19509;SDS011;9896;42.486;26.506;2023-09-12T00:16:00;5.13;;;3.57;;
19509;SDS011;9896;42.486;26.506;2023-09-12T00:18:26;10.73;;;3.60;;
19509;SDS011;9896;42.486;26.506;2023-09-12T00:20:52;4.87;;;3.40;;
19509;SDS011;9896;42.486;26.506;2023-09-12T00:23:18;6.37;;;3.73;;
19509;SDS011;9896;42.486;26.506;2023-09-12T00:25:43;6.10;;;3.30;;
19509;SDS011;9896;42.486;26.506;2023-09-12T00:28:08;4.30;;;3.63;;
19509;SDS011;9896;42.486;26.506;2023-09-12T00:30:33;6.83;;;3.60;;
19509;SDS011;9896;42.486;26.506;2023-09-12T00:32:59;7.20;;;3.77;;
19509;SDS011;9896;42.486;26.506;2023-09-12T00:35:24;4.87;;;3.67;;
19509;SDS011;9896;42.486;26.506;2023-09-12T00:37:50;7.77;;;3.90;;
19509;SDS011;9896;42.486;26.506;2023-09-12T00:40:15;3.50;;;3.20;;
19509;SDS011;9896;42.486;26.506;2023-09-12T00:42:41;6.27;;;3.63;;
19509;SDS011;9896;42.486;26.506;2023-09-12T00:45:06;4.27;;;3.43;;
19509;SDS011;9896;42.486;26.506;2023-09-12T00:47:32;4.53;;;3.17;;
19509;SDS011;9896;42.486;26.506;2023-09-12T00:49:58;5.80;;;3.80;;
19509;SDS011;9896;42.486;26.506;2023-09-12T00:52:24;7.63;;;3.53;;
19509;SDS011;9896;42.486;26.506;2023-09-12T00:54:50;3.73;;;3.23;;
19509;SDS011;9896;42.486;26.506;2023-09-12T00:57:16;5.60;;;3.40;;
19509;SDS011;9896;42.486;26.506;2023-09-12T00:59:41;5.33;;;3.23;;
19509;SDS011;9896;42.486;26.506;2023-09-12T01:02:07;8.87;;;3.30;;
19509;SDS011;9896;42.486;26.506;2023-09-12T01:04:33;5.67;;;3.10;;
19509;SDS011;9896;42.486;26.506;2023-09-12T01:06:59;8.30;;;3.80;;
19509;SDS011;9896;42.486;26.506;2023-09-12T01:09:25;6.23;;;3.63;;
19509;SDS011;9896;42.486;26.506;2023-09-12T01:11:50;7.03;;;3.37;;
19509;SDS011;9896;42.486;26.506;2023-09-12T01:14:15;4.87;;;3.33;;
19509;SDS011;9896;42.486;26.506;2023-09-12T01:16:41;5.97;;;3.00;;
19509;SDS011;9896;42.486;26.506;2023-09-12T01:19:06;4.90;;;3.03;;
19509;SDS011;9896;42.486;26.506;2023-09-12T01:29:32;5.03;;;2.80;;
19509;SDS011;9896;42.486;26.506;2023-09-12T01:31:58;6.00;;;3.00;;
19509;SDS011;9896;42.486;26.506;2023-09-12T01:34:25;6.37;;;3.03;;
19509;SDS011;9896;42.486;26.506;2023-09-12T01:36:51;4.33;;;2.90;;
19509;SDS011;9896;42.486;26.506;2023-09-12T01:39:16;4.30;;;2.70;;
19509;SDS011;9896;42.486;26.506;2023-09-12T01:41:42;4.93;;;3.40;;
19509;SDS011;9896;42.486;26.506;2023-09-12T01:44:09;3.23;;;2.47;;
19509;SDS011;9896;42.486;26.506;2023-09-12T01:46:35;6.43;;;2.37;;
19509;SDS011;9896;42.486;26.506;2023-09-12T01:49:02;6.47;;;2.90;;
19509;SDS011;9896;42.486;26.506;2023-09-12T01:51:27;4.63;;;2.73;;
19509;SDS011;9896;42.486;26.506;2023-09-12T01:53:53;5.13;;;2.30;;
19509;SDS011;9896;42.486;26.506;2023-09-12T01:56:19;4.50;;;2.87;;
19509;SDS011;9896;42.486;26.506;2023-09-12T01:58:45;3.17;;;2.50;;
19509;SDS011;9896;42.486;26.506;2023-09-12T02:01:11;6.57;;;2.30;;
19509;SDS011;9896;42.486;26.506;2023-09-12T02:03:36;2.63;;;2.43;;
19509;SDS011;9896;42.486;26.506;2023-09-12T02:06:01;4.00;;;2.27;;
19509;SDS011;9896;42.486;26.506;2023-09-12T02:08:27;6.80;;;2.90;;
19509;SDS011;9896;42.486;26.506;2023-09-12T02:10:52;3.43;;;2.43;;
19509;SDS011;9896;42.486;26.506;2023-09-12T02:13:18;5.00;;;3.03;;
19509;SDS011;9896;42.486;26.506;2023-09-12T02:15:43;6.90;;;4.17;;
19509;SDS011;9896;42.486;26.506;2023-09-12T02:18:08;7.37;;;3.50;;
19509;SDS011;9896;42.486;26.506;2023-09-12T02:20:37;5.53;;;2.77;;
19509;SDS011;9896;42.486;26.506;2023-09-12T02:23:03;10.57;;;3.20;;
19509;SDS011;9896;42.486;26.506;2023-09-12T02:25:28;9.33;;;3.97;;
19509;SDS011;9896;42.486;26.506;2023-09-12T02:27:53;3.90;;;2.70;;
19509;SDS011;9896;42.486;26.506;2023-09-12T02:30:19;10.43;;;3.53;;
19509;SDS011;9896;42.486;26.506;2023-09-12T02:32:44;5.53;;;3.30;;
19509;SDS011;9896;42.486;26.506;2023-09-12T02:35:09;6.50;;;3.20;;
19509;SDS011;9896;42.486;26.506;2023-09-12T02:37:35;8.97;;;4.10;;
19509;SDS011;9896;42.486;26.506;2023-09-12T02:40:01;5.67;;;3.87;;
19509;SDS011;9896;42.486;26.506;2023-09-12T02:42:26;11.77;;;4.47;;
19509;SDS011;9896;42.486;26.506;2023-09-12T02:44:52;5.33;;;4.40;;
19509;SDS011;9896;42.486;26.506;2023-09-12T02:47:17;7.00;;;4.40;;
19509;SDS011;9896;42.486;26.506;2023-09-12T02:49:43;7.87;;;4.73;;
19509;SDS011;9896;42.486;26.506;2023-09-12T02:52:08;7.03;;;4.50;;
19509;SDS011;9896;42.486;26.506;2023-09-12T02:54:34;8.13;;;4.90;;
19509;SDS011;9896;42.486;26.506;2023-09-12T02:56:59;6.07;;;4.43;;
19509;SDS011;9896;42.486;26.506;2023-09-12T02:59:24;8.80;;;4.53;;
19509;SDS011;9896;42.486;26.506;2023-09-12T03:01:50;6.23;;;4.17;;
19509;SDS011;9896;42.486;26.506;2023-09-12T03:04:15;8.83;;;4.43;;
19509;SDS011;9896;42.486;26.506;2023-09-12T03:06:42;6.07;;;4.37;;
19509;SDS011;9896;42.486;26.506;2023-09-12T03:09:08;9.13;;;4.00;;
19509;SDS011;9896;42.486;26.506;2023-09-12T03:11:36;10.50;;;5.50;;
19509;SDS011;9896;42.486;26.506;2023-09-12T03:14:01;9.00;;;4.43;;
19509;SDS011;9896;42.486;26.506;2023-09-12T03:16:27;6.90;;;4.27;;
19509;SDS011;9896;42.486;26.506;2023-09-12T03:18:53;8.23;;;4.40;;
19509;SDS011;9896;42.486;26.506;2023-09-12T03:21:18;6.13;;;4.23;;
19509;SDS011;9896;42.486;26.506;2023-09-12T03:23:43;5.73;;;4.13;;
19509;SDS011;9896;42.486;26.506;2023-09-12T03:26:09;7.70;;;4.33;;
19509;SDS011;9896;42.486;26.506;2023-09-12T03:28:34;5.83;;;4.40;;
19509;SDS011;9896;42.486;26.506;2023-09-12T03:31:03;9.80;;;4.73;;
19509;SDS011;9896;42.486;26.506;2023-09-12T03:33:29;6.40;;;4.17;;
19509;SDS011;9896;42.486;26.506;2023-09-12T03:35:55;4.70;;;4.20;;
19509;SDS011;9896;42.486;26.506;2023-09-12T03:38:20;8.00;;;4.40;;
19509;SDS011;9896;42.486;26.506;2023-09-12T03:40:46;10.17;;;4.60;;
19509;SDS011;9896;42.486;26.506;2023-09-12T03:43:11;5.30;;;4.30;;
19509;SDS011;9896;42.486;26.506;2023-09-12T03:45:36;5.90;;;4.60;;
19509;SDS011;9896;42.486;26.506;2023-09-12T03:48:02;8.23;;;4.50;;
19509;SDS011;9896;42.486;26.506;2023-09-12T03:50:28;6.93;;;4.73;;
19509;SDS011;9896;42.486;26.506;2023-09-12T03:52:53;6.93;;;4.93;;
19509;SDS011;9896;42.486;26.506;2023-09-12T03:55:19;10.30;;;4.90;;
19509;SDS011;9896;42.486;26.506;2023-09-12T03:57:44;9.10;;;4.53;;
19509;SDS011;9896;42.486;26.506;2023-09-12T04:00:09;9.90;;;4.57;;
19509;SDS011;9896;42.486;26.506;2023-09-12T04:02:35;8.20;;;4.53;;
19509;SDS011;9896;42.486;26.506;2023-09-12T04:05:00;10.80;;;4.70;;
19509;SDS011;9896;42.486;26.506;2023-09-12T04:07:26;7.13;;;4.87;;
19509;SDS011;9896;42.486;26.506;2023-09-12T04:09:51;12.23;;;6.33;;
19509;SDS011;9896;42.486;26.506;2023-09-12T04:12:16;12.00;;;6.97;;
19509;SDS011;9896;42.486;26.506;2023-09-12T04:14:42;15.43;;;8.70;;
19509;SDS011;9896;42.486;26.506;2023-09-12T04:17:07;9.30;;;8.23;;
19509;SDS011;9896;42.486;26.506;2023-09-12T04:19:33;13.50;;;8.20;;
19509;SDS011;9896;42.486;26.506;2023-09-12T04:21:59;11.90;;;8.03;;
19509;SDS011;9896;42.486;26.506;2023-09-12T04:24:25;11.23;;;7.53;;
19509;SDS011;9896;42.486;26.506;2023-09-12T04:26:50;12.17;;;8.27;;
19509;SDS011;9896;42.486;26.506;2023-09-12T04:29:15;12.20;;;9.80;;
19509;SDS011;9896;42.486;26.506;2023-09-12T04:31:41;11.40;;;9.00;;
19509;SDS011;9896;42.486;26.506;2023-09-12T04:34:06;12.20;;;8.90;;
19509;SDS011;9896;42.486;26.506;2023-09-12T04:36:32;11.10;;;7.83;;
19509;SDS011;9896;42.486;26.506;2023-09-12T04:38:57;12.47;;;7.50;;
19509;SDS011;9896;42.486;26.506;2023-09-12T04:41:23;11.73;;;6.50;;
19509;SDS011;9896;42.486;26.506;2023-09-12T04:43:48;9.33;;;6.30;;
19509;SDS011;9896;42.486;26.506;2023-09-12T04:46:13;15.57;;;7.03;;
19509;SDS011;9896;42.486;26.506;2023-09-12T04:48:40;12.27;;;6.60;;
19509;SDS011;9896;42.486;26.506;2023-09-12T04:51:05;7.57;;;5.50;;
19509;SDS011;9896;42.486;26.506;2023-09-12T04:53:30;7.40;;;5.10;;
19509;SDS011;9896;42.486;26.506;2023-09-12T04:56:00;12.13;;;5.40;;
19509;SDS011;9896;42.486;26.506;2023-09-12T04:58:25;10.70;;;5.37;;
19509;SDS011;9896;42.486;26.506;2023-09-12T05:00:50;6.57;;;4.60;;
19509;SDS011;9896;42.486;26.506;2023-09-12T05:03:16;12.70;;;5.40;;
19509;SDS011;9896;42.486;26.506;2023-09-12T05:05:41;7.60;;;5.07;;
19509;SDS011;9896;42.486;26.506;2023-09-12T05:08:07;10.43;;;5.10;;
19509;SDS011;9896;42.486;26.506;2023-09-12T05:10:32;10.83;;;5.40;;
19509;SDS011;9896;42.486;26.506;2023-09-12T05:12:57;12.33;;;6.27;;
19509;SDS011;9896;42.486;26.506;2023-09-12T05:15:23;10.77;;;5.03;;
19509;SDS011;9896;42.486;26.506;2023-09-12T05:17:48;7.27;;;5.30;;
19509;SDS011;9896;42.486;26.506;2023-09-12T05:20:14;12.80;;;5.00;;
19509;SDS011;9896;42.486;26.506;2023-09-12T05:22:39;10.87;;;5.10;;
19509;SDS011;9896;42.486;26.506;2023-09-12T05:25:05;9.63;;;5.97;;
19509;SDS011;9896;42.486;26.506;2023-09-12T05:27:30;8.23;;;5.40;;
19509;SDS011;9896;42.486;26.506;2023-09-12T05:29:55;8.50;;;5.43;;
19509;SDS011;9896;42.486;26.506;2023-09-12T05:32:21;18.03;;;5.97;;
19509;SDS011;9896;42.486;26.506;2023-09-12T05:34:46;13.93;;;6.00;;
19509;SDS011;9896;42.486;26.506;2023-09-12T05:37:14;11.43;;;5.60;;
19509;SDS011;9896;42.486;26.506;2023-09-12T05:39:40;15.13;;;5.43;;
19509;SDS011;9896;42.486;26.506;2023-09-12T05:42:05;13.33;;;5.80;;
19509;SDS011;9896;42.486;26.506;2023-09-12T05:44:31;10.43;;;5.13;;
19509;SDS011;9896;42.486;26.506;2023-09-12T05:46:56;10.07;;;5.60;;
19509;SDS011;9896;42.486;26.506;2023-09-12T05:49:22;15.80;;;7.27;;
19509;SDS011;9896;42.486;26.506;2023-09-12T05:51:47;8.90;;;6.20;;
19509;SDS011;9896;42.486;26.506;2023-09-12T05:54:13;9.03;;;5.80;;
19509;SDS011;9896;42.486;26.506;2023-09-12T05:56:39;14.90;;;5.77;;
19509;SDS011;9896;42.486;26.506;2023-09-12T05:59:05;7.33;;;5.10;;
19509;SDS011;9896;42.486;26.506;2023-09-12T06:01:30;10.83;;;5.40;;
19509;SDS011;9896;42.486;26.506;2023-09-12T06:03:56;10.53;;;5.10;;
19509;SDS011;9896;42.486;26.506;2023-09-12T06:06:21;8.23;;;5.47;;
19509;SDS011;9896;42.486;26.506;2023-09-12T06:08:47;13.50;;;5.23;;
19509;SDS011;9896;42.486;26.506;2023-09-12T06:11:13;14.50;;;5.23;;
19509;SDS011;9896;42.486;26.506;2023-09-12T06:13:38;10.90;;;5.00;;
19509;SDS011;9896;42.486;26.506;2023-09-12T06:16:04;9.63;;;5.33;;
19509;SDS011;9896;42.486;26.506;2023-09-12T06:18:31;11.93;;;6.00;;
19509;SDS011;9896;42.486;26.506;2023-09-12T06:20:57;8.40;;;5.20;;
19509;SDS011;9896;42.486;26.506;2023-09-12T06:23:23;9.70;;;5.10;;
19509;SDS011;9896;42.486;26.506;2023-09-12T06:25:48;13.07;;;5.40;;
19509;SDS011;9896;42.486;26.506;2023-09-12T06:28:23;9.27;;;4.70;;
19509;SDS011;9896;42.486;26.506;2023-09-12T06:30:49;8.70;;;5.23;;
19509;SDS011;9896;42.486;26.506;2023-09-12T06:33:14;5.97;;;4.47;;
19509;SDS011;9896;42.486;26.506;2023-09-12T06:35:40;11.00;;;5.20;;
19509;SDS011;9896;42.486;26.506;2023-09-12T06:38:05;10.07;;;4.70;;
19509;SDS011;9896;42.486;26.506;2023-09-12T06:40:30;9.87;;;4.57;;
19509;SDS011;9896;42.486;26.506;2023-09-12T06:42:56;8.43;;;4.90;;
19509;SDS011;9896;42.486;26.506;2023-09-12T06:45:21;8.87;;;4.90;;
19509;SDS011;9896;42.486;26.506;2023-09-12T06:47:47;8.33;;;5.03;;
19509;SDS011;9896;42.486;26.506;2023-09-12T06:50:12;8.93;;;5.50;;
19509;SDS011;9896;42.486;26.506;2023-09-12T06:52:37;12.17;;;5.30;;
19509;SDS011;9896;42.486;26.506;2023-09-12T06:55:03;6.53;;;5.23;;
19509;SDS011;9896;42.486;26.506;2023-09-12T06:57:28;9.97;;;5.30;;
19509;SDS011;9896;42.486;26.506;2023-09-12T06:59:54;11.60;;;4.90;;
19509;SDS011;9896;42.486;26.506;2023-09-12T07:02:20;7.67;;;4.67;;
19509;SDS011;9896;42.486;26.506;2023-09-12T07:04:46;8.53;;;4.40;;
19509;SDS011;9896;42.486;26.506;2023-09-12T07:07:12;7.40;;;5.83;;
19509;SDS011;9896;42.486;26.506;2023-09-12T07:09:37;13.70;;;6.50;;
19509;SDS011;9896;42.486;26.506;2023-09-12T07:12:03;16.90;;;7.43;;
19509;SDS011;9896;42.486;26.506;2023-09-12T07:14:30;19.13;;;6.53;;
19509;SDS011;9896;42.486;26.506;2023-09-12T07:16:56;9.10;;;4.53;;
19509;SDS011;9896;42.486;26.506;2023-09-12T07:19:22;6.70;;;4.13;;
19509;SDS011;9896;42.486;26.506;2023-09-12T07:21:47;7.57;;;3.60;;
19509;SDS011;9896;42.486;26.506;2023-09-12T07:24:12;5.13;;;3.40;;
19509;SDS011;9896;42.486;26.506;2023-09-12T07:26:38;8.00;;;4.00;;
19509;SDS011;9896;42.486;26.506;2023-09-12T07:29:03;4.80;;;3.67;;
19509;SDS011;9896;42.486;26.506;2023-09-12T07:31:30;6.00;;;3.40;;
19509;SDS011;9896;42.486;26.506;2023-09-12T07:33:56;5.70;;;3.93;;
19509;SDS011;9896;42.486;26.506;2023-09-12T07:36:21;5.10;;;3.37;;
19509;SDS011;9896;42.486;26.506;2023-09-12T07:38:47;6.37;;;3.40;;
19509;SDS011;9896;42.486;26.506;2023-09-12T07:41:13;8.47;;;3.57;;
19509;SDS011;9896;42.486;26.506;2023-09-12T07:43:38;5.57;;;3.70;;
19509;SDS011;9896;42.486;26.506;2023-09-12T07:46:04;5.00;;;2.63;;
19509;SDS011;9896;42.486;26.506;2023-09-12T07:48:29;7.23;;;2.77;;
19509;SDS011;9896;42.486;26.506;2023-09-12T07:50:55;4.97;;;2.83;;
19509;SDS011;9896;42.486;26.506;2023-09-12T07:53:20;9.33;;;2.93;;
19509;SDS011;9896;42.486;26.506;2023-09-12T07:55:45;4.03;;;2.60;;
19509;SDS011;9896;42.486;26.506;2023-09-12T07:58:12;10.17;;;2.83;;
19509;SDS011;9896;42.486;26.506;2023-09-12T08:00:37;5.83;;;2.80;;
19509;SDS011;9896;42.486;26.506;2023-09-12T08:03:03;2.90;;;2.50;;
19509;SDS011;9896;42.486;26.506;2023-09-12T08:05:28;4.82;;;2.75;;
19509;SDS011;9896;42.486;26.506;2023-09-12T08:07:54;4.22;;;2.90;;
19509;SDS011;9896;42.486;26.506;2023-09-12T08:10:20;4.40;;;2.97;;
19509;SDS011;9896;42.486;26.506;2023-09-12T08:12:45;4.43;;;2.43;;
19509;SDS011;9896;42.486;26.506;2023-09-12T08:15:11;5.10;;;2.90;;
19509;SDS011;9896;42.486;26.506;2023-09-12T08:17:36;6.67;;;2.80;;
19509;SDS011;9896;42.486;26.506;2023-09-12T08:20:01;3.87;;;3.30;;
19509;SDS011;9896;42.486;26.506;2023-09-12T08:22:28;6.73;;;2.70;;
19509;SDS011;9896;42.486;26.506;2023-09-12T08:24:54;4.67;;;2.80;;
19509;SDS011;9896;42.486;26.506;2023-09-12T08:27:19;4.03;;;2.70;;
19509;SDS011;9896;42.486;26.506;2023-09-12T08:29:45;4.43;;;2.30;;
19509;SDS011;9896;42.486;26.506;2023-09-12T08:32:13;8.60;;;2.57;;
19509;SDS011;9896;42.486;26.506;2023-09-12T08:34:38;4.53;;;2.40;;
19509;SDS011;9896;42.486;26.506;2023-09-12T08:37:04;3.58;;;2.42;;
19509;SDS011;9896;42.486;26.506;2023-09-12T08:39:40;2.87;;;2.23;;
19509;SDS011;9896;42.486;26.506;2023-09-12T08:42:06;4.10;;;2.30;;
19509;SDS011;9896;42.486;26.506;2023-09-12T08:44:32;6.55;;;2.17;;
19509;SDS011;9896;42.486;26.506;2023-09-12T08:46:58;4.00;;;2.22;;
19509;SDS011;9896;42.486;26.506;2023-09-12T08:49:25;4.57;;;2.67;;
19509;SDS011;9896;42.486;26.506;2023-09-12T08:51:51;9.70;;;3.00;;
19509;SDS011;9896;42.486;26.506;2023-09-12T08:54:16;7.63;;;2.80;;
19509;SDS011;9896;42.486;26.506;2023-09-12T08:56:42;4.35;;;2.28;;
19509;SDS011;9896;42.486;26.506;2023-09-12T08:59:08;5.05;;;2.20;;
19509;SDS011;9896;42.486;26.506;2023-09-12T09:01:35;3.78;;;2.33;;
19509;SDS011;9896;42.486;26.506;2023-09-12T09:04:02;5.53;;;2.90;;
19509;SDS011;9896;42.486;26.506;2023-09-12T09:06:29;6.75;;;2.55;;
19509;SDS011;9896;42.486;26.506;2023-09-12T09:08:55;3.78;;;2.22;;
19509;SDS011;9896;42.486;26.506;2023-09-12T09:11:21;4.10;;;2.60;;
19509;SDS011;9896;42.486;26.506;2023-09-12T09:13:47;5.65;;;2.85;;
19509;SDS011;9896;42.486;26.506;2023-09-12T09:16:14;8.40;;;2.60;;
19509;SDS011;9896;42.486;26.506;2023-09-12T09:18:56;9.40;;;4.25;;
19509;SDS011;9896;42.486;26.506;2023-09-12T09:21:23;5.00;;;2.30;;
19509;SDS011;9896;42.486;26.506;2023-09-12T09:23:50;3.80;;;2.50;;
19509;SDS011;9896;42.486;26.506;2023-09-12T09:26:16;4.82;;;2.35;;
19509;SDS011;9896;42.486;26.506;2023-09-12T09:28:42;4.03;;;2.75;;
19509;SDS011;9896;42.486;26.506;2023-09-12T09:31:13;5.63;;;2.28;;
19509;SDS011;9896;42.486;26.506;2023-09-12T09:33:40;5.13;;;2.05;;
19509;SDS011;9896;42.486;26.506;2023-09-12T09:36:06;2.97;;;2.28;;
19509;SDS011;9896;42.486;26.506;2023-09-12T09:38:32;5.72;;;2.63;;
19509;SDS011;9896;42.486;26.506;2023-09-12T09:40:59;8.52;;;2.78;;
19509;SDS011;9896;42.486;26.506;2023-09-12T09:43:24;8.43;;;2.60;;
19509;SDS011;9896;42.486;26.506;2023-09-12T09:45:50;7.95;;;2.25;;
19509;SDS011;9896;42.486;26.506;2023-09-12T09:48:22;3.55;;;2.25;;
19509;SDS011;9896;42.486;26.506;2023-09-12T09:50:47;7.13;;;2.50;;
19509;SDS011;9896;42.486;26.506;2023-09-12T09:53:13;3.85;;;2.50;;
19509;SDS011;9896;42.486;26.506;2023-09-12T09:55:38;3.28;;;2.33;;
19509;SDS011;9896;42.486;26.506;2023-09-12T09:58:06;5.60;;;2.53;;
19509;SDS011;9896;42.486;26.506;2023-09-12T10:00:33;3.63;;;2.05;;
19509;SDS011;9896;42.486;26.506;2023-09-12T10:02:58;10.68;;;2.58;;
19509;SDS011;9896;42.486;26.506;2023-09-12T10:05:24;7.22;;;2.40;;
19509;SDS011;9896;42.486;26.506;2023-09-12T10:07:50;4.20;;;2.45;;
19509;SDS011;9896;42.486;26.506;2023-09-12T10:10:18;3.58;;;2.60;;
19509;SDS011;9896;42.486;26.506;2023-09-12T10:12:51;5.15;;;2.40;;
19509;SDS011;9896;42.486;26.506;2023-09-12T10:15:21;3.95;;;2.03;;
19509;SDS011;9896;42.486;26.506;2023-09-12T10:17:51;5.40;;;2.40;;
19509;SDS011;9896;42.486;26.506;2023-09-12T10:20:20;5.97;;;2.55;;
19509;SDS011;9896;42.486;26.506;2023-09-12T10:23:08;3.05;;;2.30;;
19509;SDS011;9896;42.486;26.506;2023-09-12T10:25:35;4.95;;;2.65;;
19509;SDS011;9896;42.486;26.506;2023-09-12T10:28:00;5.75;;;2.50;;
19509;SDS011;9896;42.486;26.506;2023-09-12T10:30:26;4.75;;;2.50;;
19509;SDS011;9896;42.486;26.506;2023-09-12T10:32:52;3.17;;;2.10;;
19509;SDS011;9896;42.486;26.506;2023-09-12T10:35:17;3.30;;;2.70;;
19509;SDS011;9896;42.486;26.506;2023-09-12T10:37:43;4.82;;;2.72;;
19509;SDS011;9896;42.486;26.506;2023-09-12T10:40:11;6.13;;;3.38;;
19509;SDS011;9896;42.486;26.506;2023-09-12T10:42:37;3.00;;;2.40;;
19509;SDS011;9896;42.486;26.506;2023-09-12T10:45:05;8.55;;;3.00;;
19509;SDS011;9896;42.486;26.506;2023-09-12T10:47:32;4.53;;;2.20;;
19509;SDS011;9896;42.486;26.506;2023-09-12T10:49:57;4.32;;;2.20;;
19509;SDS011;9896;42.486;26.506;2023-09-12T10:52:23;10.75;;;2.67;;
19509;SDS011;9896;42.486;26.506;2023-09-12T10:54:49;7.35;;;2.28;;
19509;SDS011;9896;42.486;26.506;2023-09-12T10:57:14;4.78;;;2.58;;
19509;SDS011;9896;42.486;26.506;2023-09-12T11:02:28;5.65;;;2.40;;
19509;SDS011;9896;42.486;26.506;2023-09-12T11:04:54;3.28;;;2.17;;
19509;SDS011;9896;42.486;26.506;2023-09-12T11:10:18;4.55;;;2.58;;
19509;SDS011;9896;42.486;26.506;2023-09-12T11:12:45;8.57;;;2.75;;
19509;SDS011;9896;42.486;26.506;2023-09-12T11:15:10;8.07;;;2.97;;
19509;SDS011;9896;42.486;26.506;2023-09-12T11:17:39;4.18;;;2.53;;
19509;SDS011;9896;42.486;26.506;2023-09-12T11:20:05;6.75;;;2.80;;
19509;SDS011;9896;42.486;26.506;2023-09-12T11:25:04;4.00;;;2.20;;
19509;SDS011;9896;42.486;26.506;2023-09-12T11:30:14;4.40;;;2.20;;
19509;SDS011;9896;42.486;26.506;2023-09-12T11:32:40;11.25;;;2.38;;
19509;SDS011;9896;42.486;26.506;2023-09-12T11:35:09;7.15;;;2.80;;
19509;SDS011;9896;42.486;26.506;2023-09-12T11:37:35;6.35;;;2.40;;
19509;SDS011;9896;42.486;26.506;2023-09-12T11:40:14;4.38;;;2.35;;
19509;SDS011;9896;42.486;26.506;2023-09-12T11:42:41;13.25;;;2.83;;
19509;SDS011;9896;42.486;26.506;2023-09-12T11:45:10;4.82;;;2.42;;
19509;SDS011;9896;42.486;26.506;2023-09-12T11:47:42;3.53;;;2.47;;
19509;SDS011;9896;42.486;26.506;2023-09-12T11:50:08;3.65;;;2.53;;
19509;SDS011;9896;42.486;26.506;2023-09-12T11:52:36;5.03;;;2.50;;
19509;SDS011;9896;42.486;26.506;2023-09-12T11:55:05;9.30;;;2.80;;
19509;SDS011;9896;42.486;26.506;2023-09-12T11:57:30;2.75;;;2.30;;
19509;SDS011;9896;42.486;26.506;2023-09-12T11:59:57;13.05;;;3.00;;
19509;SDS011;9896;42.486;26.506;2023-09-12T12:02:22;4.80;;;2.70;;
19509;SDS011;9896;42.486;26.506;2023-09-12T12:04:49;9.43;;;3.60;;
19509;SDS011;9896;42.486;26.506;2023-09-12T12:07:15;5.32;;;2.70;;
19509;SDS011;9896;42.486;26.506;2023-09-12T12:09:40;9.77;;;2.80;;
19509;SDS011;9896;42.486;26.506;2023-09-12T12:12:10;5.65;;;2.72;;
19509;SDS011;9896;42.486;26.506;2023-09-12T12:14:36;3.55;;;2.72;;
19509;SDS011;9896;42.486;26.506;2023-09-12T12:17:08;5.38;;;2.72;;
19509;SDS011;9896;42.486;26.506;2023-09-12T12:19:34;3.13;;;2.42;;
19509;SDS011;9896;42.486;26.506;2023-09-12T12:21:59;4.43;;;2.75;;
19509;SDS011;9896;42.486;26.506;2023-09-12T12:24:25;14.48;;;2.72;;
19509;SDS011;9896;42.486;26.506;2023-09-12T12:26:50;5.00;;;2.72;;
19509;SDS011;9896;42.486;26.506;2023-09-12T12:29:16;5.57;;;2.55;;
19509;SDS011;9896;42.486;26.506;2023-09-12T12:31:41;6.63;;;2.75;;
19509;SDS011;9896;42.486;26.506;2023-09-12T12:34:07;9.18;;;2.97;;
19509;SDS011;9896;42.486;26.506;2023-09-12T12:36:32;8.52;;;2.65;;
19509;SDS011;9896;42.486;26.506;2023-09-12T12:38:58;6.80;;;2.58;;
19509;SDS011;9896;42.486;26.506;2023-09-12T12:41:27;6.72;;;2.90;;
19509;SDS011;9896;42.486;26.506;2023-09-12T12:43:53;5.70;;;2.72;;
19509;SDS011;9896;42.486;26.506;2023-09-12T12:46:25;4.82;;;3.05;;
19509;SDS011;9896;42.486;26.506;2023-09-12T12:48:51;10.20;;;2.90;;
19509;SDS011;9896;42.486;26.506;2023-09-12T12:51:23;5.65;;;3.10;;
19509;SDS011;9896;42.486;26.506;2023-09-12T12:53:49;12.63;;;2.97;;
19509;SDS011;9896;42.486;26.506;2023-09-12T12:56:20;9.00;;;2.92;;
19509;SDS011;9896;42.486;26.506;2023-09-12T12:58:46;6.75;;;3.00;;
19509;SDS011;9896;42.486;26.506;2023-09-12T13:01:12;5.78;;;2.60;;
19509;SDS011;9896;42.486;26.506;2023-09-12T13:03:37;7.95;;;2.95;;
19509;SDS011;9896;42.486;26.506;2023-09-12T13:06:02;6.75;;;3.17;;
19509;SDS011;9896;42.486;26.506;2023-09-12T13:08:28;6.22;;;2.90;;
19509;SDS011;9896;42.486;26.506;2023-09-12T13:10:53;6.00;;;2.67;;
19509;SDS011;9896;42.486;26.506;2023-09-12T13:13:19;5.20;;;2.65;;
19509;SDS011;9896;42.486;26.506;2023-09-12T13:15:44;8.82;;;3.35;;
19509;SDS011;9896;42.486;26.506;2023-09-12T13:18:09;6.38;;;2.90;;
19509;SDS011;9896;42.486;26.506;2023-09-12T13:20:35;5.80;;;2.85;;
19509;SDS011;9896;42.486;26.506;2023-09-12T13:23:00;8.63;;;3.58;;
19509;SDS011;9896;42.486;26.506;2023-09-12T13:25:26;9.60;;;3.50;;
19509;SDS011;9896;42.486;26.506;2023-09-12T13:27:51;8.15;;;2.83;;
19509;SDS011;9896;42.486;26.506;2023-09-12T13:30:16;4.35;;;2.50;;
19509;SDS011;9896;42.486;26.506;2023-09-12T13:32:42;8.18;;;2.55;;
19509;SDS011;9896;42.486;26.506;2023-09-12T13:35:07;3.97;;;2.50;;
19509;SDS011;9896;42.486;26.506;2023-09-12T13:37:33;8.57;;;3.13;;
19509;SDS011;9896;42.486;26.506;2023-09-12T13:39:58;8.13;;;3.28;;
19509;SDS011;9896;42.486;26.506;2023-09-12T13:42:24;7.32;;;2.80;;
19509;SDS011;9896;42.486;26.506;2023-09-12T13:44:51;7.45;;;2.67;;
19509;SDS011;9896;42.486;26.506;2023-09-12T13:47:16;8.25;;;2.63;;
19509;SDS011;9896;42.486;26.506;2023-09-12T13:49:50;8.30;;;2.55;;
19509;SDS011;9896;42.486;26.506;2023-09-12T13:52:21;4.82;;;2.70;;
19509;SDS011;9896;42.486;26.506;2023-09-12T13:54:47;7.07;;;2.95;;
19509;SDS011;9896;42.486;26.506;2023-09-12T13:57:12;8.32;;;3.35;;
19509;SDS011;9896;42.486;26.506;2023-09-12T13:59:38;7.97;;;3.30;;
19509;SDS011;9896;42.486;26.506;2023-09-12T14:02:03;11.57;;;3.08;;
19509;SDS011;9896;42.486;26.506;2023-09-12T14:04:29;16.02;;;4.15;;
19509;SDS011;9896;42.486;26.506;2023-09-12T14:06:54;7.93;;;2.90;;
19509;SDS011;9896;42.486;26.506;2023-09-12T14:09:20;8.90;;;3.08;;
19509;SDS011;9896;42.486;26.506;2023-09-12T14:11:46;6.57;;;2.75;;
19509;SDS011;9896;42.486;26.506;2023-09-12T14:14:12;7.85;;;3.42;;
19509;SDS011;9896;42.486;26.506;2023-09-12T14:16:38;8.52;;;2.35;;
19509;SDS011;9896;42.486;26.506;2023-09-12T14:19:03;5.45;;;3.25;;
19509;SDS011;9896;42.486;26.506;2023-09-12T14:21:29;10.75;;;3.55;;
19509;SDS011;9896;42.486;26.506;2023-09-12T14:23:54;9.88;;;3.08;;
19509;SDS011;9896;42.486;26.506;2023-09-12T14:26:19;7.15;;;3.10;;
19509;SDS011;9896;42.486;26.506;2023-09-12T14:28:45;8.38;;;2.67;;
19509;SDS011;9896;42.486;26.506;2023-09-12T14:31:11;8.07;;;2.45;;
19509;SDS011;9896;42.486;26.506;2023-09-12T14:33:39;8.90;;;2.80;;
19509;SDS011;9896;42.486;26.506;2023-09-12T14:36:05;6.30;;;3.20;;
19509;SDS011;9896;42.486;26.506;2023-09-12T14:38:31;11.77;;;3.30;;
19509;SDS011;9896;42.486;26.506;2023-09-12T14:40:56;8.52;;;2.92;;
19509;SDS011;9896;42.486;26.506;2023-09-12T14:43:23;9.13;;;2.72;;
19509;SDS011;9896;42.486;26.506;2023-09-12T14:45:48;6.95;;;2.83;;
19509;SDS011;9896;42.486;26.506;2023-09-12T14:48:14;6.07;;;2.78;;
19509;SDS011;9896;42.486;26.506;2023-09-12T14:50:39;4.82;;;2.58;;
19509;SDS011;9896;42.486;26.506;2023-09-12T14:53:05;7.25;;;2.47;;
19509;SDS011;9896;42.486;26.506;2023-09-12T14:55:31;6.35;;;2.25;;
19509;SDS011;9896;42.486;26.506;2023-09-12T14:57:57;5.65;;;2.42;;